sensor_id;sensor_type;location;lat;lon;timestamp;P1;durP1;ratioP1;P2;durP2;ratioP2
1591;SDS011;789;51.612;7.510;2023-03-01T00:01:02;11.33;;;9.37;;
1591;SDS011;789;51.612;7.510;2023-03-01T00:03:30;10.67;;;8.80;;
1591;SDS011;789;51.612;7.510;2023-03-01T00:05:57;12.83;;;8.93;;
1591;SDS011;789;51.612;7.510;2023-03-01T00:08:24;12.03;;;9.40;;
1591;SDS011;789;51.612;7.510;2023-03-01T00:10:59;14.70;;;9.50;;
1591;SDS011;789;51.612;7.510;2023-03-01T00:13:28;14.33;;;9.87;;
1591;SDS011;789;51.612;7.510;2023-03-01T00:15:55;13.67;;;9.40;;
1591;SDS011;789;51.612;7.510;2023-03-01T00:18:22;10.97;;;9.37;;
1591;SDS011;789;51.612;7.510;2023-03-01T00:20:49;14.77;;;9.90;;
1591;SDS011;789;51.612;7.510;2023-03-01T00:23:17;15.43;;;10.90;;
1591;SDS011;789;51.612;7.510;2023-03-01T00:25:43;13.67;;;9.90;;
1591;SDS011;789;51.612;7.510;2023-03-01T00:28:10;13.97;;;9.87;;
1591;SDS011;789;51.612;7.510;2023-03-01T00:30:38;10.00;;;8.90;;
1591;SDS011;789;51.612;7.510;2023-03-01T00:33:05;14.80;;;9.00;;
1591;SDS011;789;51.612;7.510;2023-03-01T00:35:32;13.13;;;9.60;;
1591;SDS011;789;51.612;7.510;2023-03-01T00:37:59;12.60;;;10.10;;
1591;SDS011;789;51.612;7.510;2023-03-01T00:40:25;13.70;;;9.83;;
1591;SDS011;789;51.612;7.510;2023-03-01T00:42:53;14.60;;;10.50;;
1591;SDS011;789;51.612;7.510;2023-03-01T00:45:20;11.73;;;10.47;;
1591;SDS011;789;51.612;7.510;2023-03-01T00:47:49;13.37;;;9.70;;
1591;SDS011;789;51.612;7.510;2023-03-01T00:50:16;11.37;;;9.50;;
1591;SDS011;789;51.612;7.510;2023-03-01T00:52:43;14.47;;;10.00;;
1591;SDS011;789;51.612;7.510;2023-03-01T00:55:10;12.90;;;9.70;;
1591;SDS011;789;51.612;7.510;2023-03-01T00:57:38;9.97;;;8.97;;
1591;SDS011;789;51.612;7.510;2023-03-01T01:00:05;12.83;;;10.27;;
1591;SDS011;789;51.612;7.510;2023-03-01T01:02:34;16.00;;;10.30;;
1591;SDS011;789;51.612;7.510;2023-03-01T01:05:03;12.70;;;9.50;;
1591;SDS011;789;51.612;7.510;2023-03-01T01:07:30;11.03;;;9.60;;
1591;SDS011;789;51.612;7.510;2023-03-01T01:09:57;11.10;;;8.90;;
1591;SDS011;789;51.612;7.510;2023-03-01T01:12:23;17.20;;;9.80;;
1591;SDS011;789;51.612;7.510;2023-03-01T01:14:50;13.60;;;9.80;;
1591;SDS011;789;51.612;7.510;2023-03-01T01:17:17;11.53;;;9.80;;
1591;SDS011;789;51.612;7.510;2023-03-01T01:19:43;12.43;;;9.20;;
1591;SDS011;789;51.612;7.510;2023-03-01T01:22:11;12.10;;;9.37;;
1591;SDS011;789;51.612;7.510;2023-03-01T01:24:38;15.33;;;9.07;;
1591;SDS011;789;51.612;7.510;2023-03-01T01:27:05;11.60;;;9.60;;
1591;SDS011;789;51.612;7.510;2023-03-01T01:29:32;11.47;;;9.37;;
1591;SDS011;789;51.612;7.510;2023-03-01T01:31:59;11.07;;;9.47;;
1591;SDS011;789;51.612;7.510;2023-03-01T01:34:25;11.80;;;9.47;;
1591;SDS011;789;51.612;7.510;2023-03-01T01:36:52;10.67;;;8.60;;
1591;SDS011;789;51.612;7.510;2023-03-01T01:39:21;12.80;;;10.07;;
1591;SDS011;789;51.612;7.510;2023-03-01T01:41:48;13.47;;;10.43;;
1591;SDS011;789;51.612;7.510;2023-03-01T01:44:17;11.47;;;9.00;;
1591;SDS011;789;51.612;7.510;2023-03-01T01:46:47;13.23;;;10.43;;
1591;SDS011;789;51.612;7.510;2023-03-01T01:49:20;11.03;;;9.40;;
1591;SDS011;789;51.612;7.510;2023-03-01T01:51:53;12.07;;;9.80;;
1591;SDS011;789;51.612;7.510;2023-03-01T01:54:28;15.87;;;10.27;;
1591;SDS011;789;51.612;7.510;2023-03-01T01:57:03;11.60;;;9.33;;
1591;SDS011;789;51.612;7.510;2023-03-01T01:59:33;12.67;;;10.10;;
1591;SDS011;789;51.612;7.510;2023-03-01T02:02:01;13.23;;;9.60;;
1591;SDS011;789;51.612;7.510;2023-03-01T02:04:28;13.37;;;8.97;;
1591;SDS011;789;51.612;7.510;2023-03-01T02:06:58;14.37;;;9.70;;
1591;SDS011;789;51.612;7.510;2023-03-01T02:09:30;15.27;;;9.00;;
1591;SDS011;789;51.612;7.510;2023-03-01T02:11:58;13.50;;;9.60;;
1591;SDS011;789;51.612;7.510;2023-03-01T02:14:25;12.20;;;9.43;;
1591;SDS011;789;51.612;7.510;2023-03-01T02:16:52;11.20;;;9.60;;
1591;SDS011;789;51.612;7.510;2023-03-01T02:19:21;11.83;;;9.50;;
1591;SDS011;789;51.612;7.510;2023-03-01T02:21:59;12.67;;;10.30;;
1591;SDS011;789;51.612;7.510;2023-03-01T02:24:35;10.67;;;8.97;;
1591;SDS011;789;51.612;7.510;2023-03-01T02:27:08;12.30;;;9.53;;
1591;SDS011;789;51.612;7.510;2023-03-01T02:29:37;12.70;;;9.70;;
1591;SDS011;789;51.612;7.510;2023-03-01T02:32:04;11.80;;;9.90;;
1591;SDS011;789;51.612;7.510;2023-03-01T02:34:31;10.57;;;9.13;;
1591;SDS011;789;51.612;7.510;2023-03-01T02:37:00;11.67;;;9.33;;
1591;SDS011;789;51.612;7.510;2023-03-01T02:39:30;12.60;;;9.23;;
1591;SDS011;789;51.612;7.510;2023-03-01T02:42:02;13.33;;;9.90;;
1591;SDS011;789;51.612;7.510;2023-03-01T02:44:30;13.70;;;10.30;;
1591;SDS011;789;51.612;7.510;2023-03-01T02:46:58;13.07;;;9.70;;
1591;SDS011;789;51.612;7.510;2023-03-01T02:49:29;12.90;;;9.37;;
1591;SDS011;789;51.612;7.510;2023-03-01T02:52:04;13.93;;;10.03;;
1591;SDS011;789;51.612;7.510;2023-03-01T02:54:39;13.90;;;10.03;;
1591;SDS011;789;51.612;7.510;2023-03-01T02:57:10;14.07;;;9.80;;
1591;SDS011;789;51.612;7.510;2023-03-01T02:59:38;12.50;;;9.40;;
1591;SDS011;789;51.612;7.510;2023-03-01T03:02:17;13.87;;;9.17;;
1591;SDS011;789;51.612;7.510;2023-03-01T03:04:47;13.93;;;9.67;;
1591;SDS011;789;51.612;7.510;2023-03-01T03:07:14;11.87;;;9.23;;
1591;SDS011;789;51.612;7.510;2023-03-01T03:09:40;12.07;;;9.70;;
1591;SDS011;789;51.612;7.510;2023-03-01T03:12:07;11.77;;;9.40;;
1591;SDS011;789;51.612;7.510;2023-03-01T03:14:34;14.73;;;9.17;;
1591;SDS011;789;51.612;7.510;2023-03-01T03:17:00;12.40;;;10.10;;
1591;SDS011;789;51.612;7.510;2023-03-01T03:19:32;12.40;;;10.13;;
1591;SDS011;789;51.612;7.510;2023-03-01T03:21:59;12.40;;;9.53;;
1591;SDS011;789;51.612;7.510;2023-03-01T03:24:26;14.83;;;10.13;;
1591;SDS011;789;51.612;7.510;2023-03-01T03:26:53;12.70;;;9.77;;
1591;SDS011;789;51.612;7.510;2023-03-01T03:29:20;13.60;;;10.37;;
1591;SDS011;789;51.612;7.510;2023-03-01T03:31:46;15.07;;;9.00;;
1591;SDS011;789;51.612;7.510;2023-03-01T03:34:13;14.10;;;10.07;;
1591;SDS011;789;51.612;7.510;2023-03-01T03:36:44;12.13;;;9.60;;
1591;SDS011;789;51.612;7.510;2023-03-01T03:39:10;12.50;;;10.00;;
1591;SDS011;789;51.612;7.510;2023-03-01T03:41:37;14.90;;;10.10;;
1591;SDS011;789;51.612;7.510;2023-03-01T03:44:04;11.40;;;8.90;;
1591;SDS011;789;51.612;7.510;2023-03-01T03:46:31;13.97;;;10.17;;
1591;SDS011;789;51.612;7.510;2023-03-01T03:48:57;17.53;;;10.57;;
1591;SDS011;789;51.612;7.510;2023-03-01T03:51:24;18.20;;;10.53;;
1591;SDS011;789;51.612;7.510;2023-03-01T03:53:52;14.50;;;9.70;;
1591;SDS011;789;51.612;7.510;2023-03-01T03:56:19;17.17;;;10.00;;
1591;SDS011;789;51.612;7.510;2023-03-01T03:58:45;12.83;;;9.40;;
1591;SDS011;789;51.612;7.510;2023-03-01T04:01:12;11.87;;;9.73;;
1591;SDS011;789;51.612;7.510;2023-03-01T04:03:39;12.43;;;10.27;;
1591;SDS011;789;51.612;7.510;2023-03-01T04:06:06;16.77;;;11.30;;
1591;SDS011;789;51.612;7.510;2023-03-01T04:08:33;18.07;;;10.83;;
1591;SDS011;789;51.612;7.510;2023-03-01T04:11:02;15.30;;;11.20;;
1591;SDS011;789;51.612;7.510;2023-03-01T04:13:44;18.47;;;10.93;;
1591;SDS011;789;51.612;7.510;2023-03-01T04:16:10;16.03;;;10.03;;
1591;SDS011;789;51.612;7.510;2023-03-01T04:18:37;15.50;;;10.47;;
1591;SDS011;789;51.612;7.510;2023-03-01T04:21:04;16.87;;;11.67;;
1591;SDS011;789;51.612;7.510;2023-03-01T04:23:31;15.90;;;11.30;;
1591;SDS011;789;51.612;7.510;2023-03-01T04:25:58;15.93;;;11.00;;
1591;SDS011;789;51.612;7.510;2023-03-01T04:28:27;14.83;;;10.53;;
1591;SDS011;789;51.612;7.510;2023-03-01T04:30:56;14.20;;;11.47;;
1591;SDS011;789;51.612;7.510;2023-03-01T04:33:25;17.40;;;12.60;;
1591;SDS011;789;51.612;7.510;2023-03-01T04:35:52;20.33;;;11.83;;
1591;SDS011;789;51.612;7.510;2023-03-01T04:38:19;19.27;;;11.43;;
1591;SDS011;789;51.612;7.510;2023-03-01T04:40:46;16.93;;;11.40;;
1591;SDS011;789;51.612;7.510;2023-03-01T04:43:13;20.67;;;11.23;;
1591;SDS011;789;51.612;7.510;2023-03-01T04:45:41;14.73;;;11.07;;
1591;SDS011;789;51.612;7.510;2023-03-01T04:48:08;23.00;;;11.40;;
1591;SDS011;789;51.612;7.510;2023-03-01T04:50:35;21.33;;;11.90;;
1591;SDS011;789;51.612;7.510;2023-03-01T04:53:02;15.57;;;10.65;;
1591;SDS011;789;51.612;7.510;2023-03-01T04:55:29;16.27;;;10.93;;
1591;SDS011;789;51.612;7.510;2023-03-01T04:57:56;17.60;;;10.93;;
1591;SDS011;789;51.612;7.510;2023-03-01T05:00:23;15.10;;;11.20;;
1591;SDS011;789;51.612;7.510;2023-03-01T05:02:52;24.03;;;11.50;;
1591;SDS011;789;51.612;7.510;2023-03-01T05:05:20;21.30;;;12.00;;
1591;SDS011;789;51.612;7.510;2023-03-01T05:07:50;18.50;;;11.50;;
1591;SDS011;789;51.612;7.510;2023-03-01T05:10:22;17.20;;;11.30;;
1591;SDS011;789;51.612;7.510;2023-03-01T05:12:49;17.60;;;11.80;;
1591;SDS011;789;51.612;7.510;2023-03-01T05:15:17;21.47;;;11.73;;
1591;SDS011;789;51.612;7.510;2023-03-01T05:17:44;18.42;;;12.25;;
1591;SDS011;789;51.612;7.510;2023-03-01T05:20:12;29.40;;;12.57;;
1591;SDS011;789;51.612;7.510;2023-03-01T05:22:39;21.63;;;12.60;;
1591;SDS011;789;51.612;7.510;2023-03-01T05:25:06;21.40;;;11.90;;
1591;SDS011;789;51.612;7.510;2023-03-01T05:27:33;20.00;;;12.20;;
1591;SDS011;789;51.612;7.510;2023-03-01T05:30:00;14.17;;;11.07;;
1591;SDS011;789;51.612;7.510;2023-03-01T05:32:38;15.60;;;10.83;;
1591;SDS011;789;51.612;7.510;2023-03-01T05:35:06;15.63;;;11.53;;
1591;SDS011;789;51.612;7.510;2023-03-01T05:37:34;20.57;;;11.13;;
1591;SDS011;789;51.612;7.510;2023-03-01T05:40:01;18.27;;;12.50;;
1591;SDS011;789;51.612;7.510;2023-03-01T05:42:30;16.20;;;12.00;;
1591;SDS011;789;51.612;7.510;2023-03-01T05:44:57;15.80;;;11.63;;
1591;SDS011;789;51.612;7.510;2023-03-01T05:47:23;16.90;;;11.53;;
1591;SDS011;789;51.612;7.510;2023-03-01T05:49:50;15.00;;;11.73;;
1591;SDS011;789;51.612;7.510;2023-03-01T05:52:17;14.80;;;11.63;;
1591;SDS011;789;51.612;7.510;2023-03-01T05:54:45;16.20;;;12.63;;
1591;SDS011;789;51.612;7.510;2023-03-01T05:57:11;19.90;;;11.27;;
1591;SDS011;789;51.612;7.510;2023-03-01T05:59:38;16.40;;;11.93;;
1591;SDS011;789;51.612;7.510;2023-03-01T06:02:05;21.33;;;12.00;;
1591;SDS011;789;51.612;7.510;2023-03-01T06:04:31;14.87;;;11.47;;
1591;SDS011;789;51.612;7.510;2023-03-01T06:06:58;13.53;;;11.40;;
1591;SDS011;789;51.612;7.510;2023-03-01T06:09:25;14.50;;;12.10;;
1591;SDS011;789;51.612;7.510;2023-03-01T06:11:53;22.90;;;12.37;;
1591;SDS011;789;51.612;7.510;2023-03-01T06:14:20;15.07;;;11.13;;
1591;SDS011;789;51.612;7.510;2023-03-01T06:16:46;15.03;;;10.90;;
1591;SDS011;789;51.612;7.510;2023-03-01T06:19:13;19.40;;;11.73;;
1591;SDS011;789;51.612;7.510;2023-03-01T06:21:40;19.93;;;13.47;;
1591;SDS011;789;51.612;7.510;2023-03-01T06:24:06;22.20;;;13.13;;
1591;SDS011;789;51.612;7.510;2023-03-01T06:26:34;17.87;;;13.23;;
1591;SDS011;789;51.612;7.510;2023-03-01T06:29:02;23.97;;;13.00;;
1591;SDS011;789;51.612;7.510;2023-03-01T06:31:28;18.90;;;12.37;;
1591;SDS011;789;51.612;7.510;2023-03-01T06:33:55;15.67;;;11.60;;
1591;SDS011;789;51.612;7.510;2023-03-01T06:36:22;19.43;;;13.33;;
1591;SDS011;789;51.612;7.510;2023-03-01T06:38:48;18.37;;;12.33;;
1591;SDS011;789;51.612;7.510;2023-03-01T06:41:15;21.10;;;12.40;;
1591;SDS011;789;51.612;7.510;2023-03-01T06:43:42;14.97;;;11.63;;
1591;SDS011;789;51.612;7.510;2023-03-01T06:46:10;17.10;;;12.80;;
1591;SDS011;789;51.612;7.510;2023-03-01T06:48:36;21.23;;;12.90;;
1591;SDS011;789;51.612;7.510;2023-03-01T06:51:03;21.07;;;11.70;;
1591;SDS011;789;51.612;7.510;2023-03-01T06:53:30;27.13;;;13.73;;
1591;SDS011;789;51.612;7.510;2023-03-01T06:55:57;22.13;;;13.13;;
1591;SDS011;789;51.612;7.510;2023-03-01T06:58:25;24.60;;;13.10;;
1591;SDS011;789;51.612;7.510;2023-03-01T07:00:52;15.87;;;11.77;;
1591;SDS011;789;51.612;7.510;2023-03-01T07:03:20;25.20;;;12.70;;
1591;SDS011;789;51.612;7.510;2023-03-01T07:05:48;19.90;;;12.87;;
1591;SDS011;789;51.612;7.510;2023-03-01T07:08:16;17.40;;;12.47;;
1591;SDS011;789;51.612;7.510;2023-03-01T07:10:43;17.30;;;12.57;;
1591;SDS011;789;51.612;7.510;2023-03-01T07:13:10;17.93;;;12.60;;
1591;SDS011;789;51.612;7.510;2023-03-01T07:15:36;22.07;;;13.37;;
1591;SDS011;789;51.612;7.510;2023-03-01T07:18:03;20.87;;;12.70;;
1591;SDS011;789;51.612;7.510;2023-03-01T07:20:31;16.80;;;12.40;;
1591;SDS011;789;51.612;7.510;2023-03-01T07:22:58;21.23;;;12.03;;
1591;SDS011;789;51.612;7.510;2023-03-01T07:25:24;16.97;;;12.33;;
1591;SDS011;789;51.612;7.510;2023-03-01T07:27:51;17.20;;;12.80;;
1591;SDS011;789;51.612;7.510;2023-03-01T07:30:19;33.30;;;12.77;;
1591;SDS011;789;51.612;7.510;2023-03-01T07:32:46;17.23;;;12.77;;
1591;SDS011;789;51.612;7.510;2023-03-01T07:35:13;18.83;;;11.90;;
1591;SDS011;789;51.612;7.510;2023-03-01T07:37:42;16.70;;;10.90;;
1591;SDS011;789;51.612;7.510;2023-03-01T07:40:09;15.53;;;11.40;;
1591;SDS011;789;51.612;7.510;2023-03-01T07:42:37;17.97;;;12.17;;
1591;SDS011;789;51.612;7.510;2023-03-01T07:45:04;13.20;;;10.63;;
1591;SDS011;789;51.612;7.510;2023-03-01T07:47:31;18.93;;;10.73;;
1591;SDS011;789;51.612;7.510;2023-03-01T07:49:58;19.50;;;11.70;;
1591;SDS011;789;51.612;7.510;2023-03-01T07:52:26;18.73;;;11.30;;
1591;SDS011;789;51.612;7.510;2023-03-01T07:54:54;13.80;;;11.83;;
1591;SDS011;789;51.612;7.510;2023-03-01T07:57:20;16.00;;;10.93;;
1591;SDS011;789;51.612;7.510;2023-03-01T07:59:47;12.43;;;10.70;;
1591;SDS011;789;51.612;7.510;2023-03-01T08:02:14;13.90;;;10.93;;
1591;SDS011;789;51.612;7.510;2023-03-01T08:04:41;14.63;;;11.13;;
1591;SDS011;789;51.612;7.510;2023-03-01T08:07:07;11.10;;;9.90;;
1591;SDS011;789;51.612;7.510;2023-03-01T08:09:34;31.07;;;10.50;;
1591;SDS011;789;51.612;7.510;2023-03-01T08:12:04;11.13;;;9.97;;
1591;SDS011;789;51.612;7.510;2023-03-01T08:14:31;13.40;;;10.40;;
1591;SDS011;789;51.612;7.510;2023-03-01T08:16:57;13.07;;;11.77;;
1591;SDS011;789;51.612;7.510;2023-03-01T08:19:24;11.97;;;10.70;;
1591;SDS011;789;51.612;7.510;2023-03-01T08:21:53;16.20;;;10.27;;
1591;SDS011;789;51.612;7.510;2023-03-01T08:24:19;11.23;;;9.80;;
1591;SDS011;789;51.612;7.510;2023-03-01T08:26:47;11.17;;;10.00;;
1591;SDS011;789;51.612;7.510;2023-03-01T08:29:15;12.97;;;9.90;;
1591;SDS011;789;51.612;7.510;2023-03-01T08:31:41;12.30;;;10.10;;
1591;SDS011;789;51.612;7.510;2023-03-01T08:34:09;12.97;;;10.83;;
1591;SDS011;789;51.612;7.510;2023-03-01T08:36:37;14.40;;;10.50;;
1591;SDS011;789;51.612;7.510;2023-03-01T08:39:06;11.50;;;10.30;;
1591;SDS011;789;51.612;7.510;2023-03-01T08:41:33;11.77;;;10.57;;
1591;SDS011;789;51.612;7.510;2023-03-01T08:44:00;11.73;;;10.17;;
1591;SDS011;789;51.612;7.510;2023-03-01T08:46:28;12.33;;;11.10;;
1591;SDS011;789;51.612;7.510;2023-03-01T08:48:56;12.50;;;10.20;;
1591;SDS011;789;51.612;7.510;2023-03-01T08:51:23;10.93;;;9.83;;
1591;SDS011;789;51.612;7.510;2023-03-01T08:53:51;11.00;;;9.90;;
1591;SDS011;789;51.612;7.510;2023-03-01T08:56:18;11.10;;;10.00;;
1591;SDS011;789;51.612;7.510;2023-03-01T08:58:45;10.87;;;9.77;;
1591;SDS011;789;51.612;7.510;2023-03-01T09:01:13;12.00;;;10.77;;
1591;SDS011;789;51.612;7.510;2023-03-01T09:03:42;12.50;;;10.40;;
1591;SDS011;789;51.612;7.510;2023-03-01T09:06:10;15.03;;;10.23;;
1591;SDS011;789;51.612;7.510;2023-03-01T09:08:39;15.67;;;10.40;;
1591;SDS011;789;51.612;7.510;2023-03-01T09:11:08;14.23;;;10.80;;
1591;SDS011;789;51.612;7.510;2023-03-01T09:13:36;11.97;;;10.73;;
1591;SDS011;789;51.612;7.510;2023-03-01T09:16:03;12.27;;;10.80;;
1591;SDS011;789;51.612;7.510;2023-03-01T09:18:33;18.60;;;10.80;;
1591;SDS011;789;51.612;7.510;2023-03-01T09:21:03;15.30;;;11.93;;
1591;SDS011;789;51.612;7.510;2023-03-01T09:23:33;14.13;;;10.13;;
1591;SDS011;789;51.612;7.510;2023-03-01T09:26:04;11.13;;;10.03;;
1591;SDS011;789;51.612;7.510;2023-03-01T09:28:33;11.57;;;10.40;;
1591;SDS011;789;51.612;7.510;2023-03-01T09:31:01;14.43;;;10.57;;
1591;SDS011;789;51.612;7.510;2023-03-01T09:33:29;11.53;;;10.23;;
1591;SDS011;789;51.612;7.510;2023-03-01T09:35:57;10.30;;;9.40;;
1591;SDS011;789;51.612;7.510;2023-03-01T09:38:25;10.30;;;9.27;;
1591;SDS011;789;51.612;7.510;2023-03-01T09:40:52;10.80;;;9.77;;
1591;SDS011;789;51.612;7.510;2023-03-01T09:43:21;11.00;;;9.90;;
1591;SDS011;789;51.612;7.510;2023-03-01T09:45:55;10.20;;;9.20;;
1591;SDS011;789;51.612;7.510;2023-03-01T09:48:30;41.57;;;12.03;;
1591;SDS011;789;51.612;7.510;2023-03-01T09:51:12;10.37;;;9.23;;
1591;SDS011;789;51.612;7.510;2023-03-01T09:53:45;11.07;;;9.57;;
1591;SDS011;789;51.612;7.510;2023-03-01T09:56:13;11.23;;;9.00;;
1591;SDS011;789;51.612;7.510;2023-03-01T09:58:47;16.17;;;9.47;;
1591;SDS011;789;51.612;7.510;2023-03-01T10:01:25;15.70;;;9.27;;
1591;SDS011;789;51.612;7.510;2023-03-01T10:04:05;8.70;;;7.80;;
1591;SDS011;789;51.612;7.510;2023-03-01T10:06:51;12.70;;;7.73;;
1591;SDS011;789;51.612;7.510;2023-03-01T10:09:27;8.93;;;8.07;;
1591;SDS011;789;51.612;7.510;2023-03-01T10:11:58;8.10;;;6.97;;
1591;SDS011;789;51.612;7.510;2023-03-01T10:14:29;8.40;;;7.50;;
1591;SDS011;789;51.612;7.510;2023-03-01T10:17:00;14.90;;;8.70;;
1591;SDS011;789;51.612;7.510;2023-03-01T10:19:31;7.77;;;7.07;;
1591;SDS011;789;51.612;7.510;2023-03-01T10:22:03;12.87;;;8.40;;
1591;SDS011;789;51.612;7.510;2023-03-01T10:24:37;9.80;;;8.00;;
1591;SDS011;789;51.612;7.510;2023-03-01T10:27:04;10.80;;;7.07;;
1591;SDS011;789;51.612;7.510;2023-03-01T10:29:37;8.23;;;7.50;;
1591;SDS011;789;51.612;7.510;2023-03-01T10:32:10;11.30;;;7.63;;
1591;SDS011;789;51.612;7.510;2023-03-01T10:34:37;9.93;;;7.30;;
1591;SDS011;789;51.612;7.510;2023-03-01T10:37:08;9.50;;;8.00;;
1591;SDS011;789;51.612;7.510;2023-03-01T10:39:39;8.43;;;7.53;;
1591;SDS011;789;51.612;7.510;2023-03-01T10:42:22;10.00;;;7.73;;
1591;SDS011;789;51.612;7.510;2023-03-01T10:44:53;11.00;;;7.00;;
1591;SDS011;789;51.612;7.510;2023-03-01T10:47:21;9.60;;;7.90;;
1591;SDS011;789;51.612;7.510;2023-03-01T10:49:57;11.43;;;8.10;;
1591;SDS011;789;51.612;7.510;2023-03-01T10:52:27;8.57;;;7.83;;
1591;SDS011;789;51.612;7.510;2023-03-01T10:55:02;7.83;;;7.13;;
1591;SDS011;789;51.612;7.510;2023-03-01T10:57:48;8.20;;;7.40;;
1591;SDS011;789;51.612;7.510;2023-03-01T11:00:17;10.30;;;8.50;;
1591;SDS011;789;51.612;7.510;2023-03-01T11:02:48;8.33;;;7.40;;
1591;SDS011;789;51.612;7.510;2023-03-01T11:05:20;8.83;;;7.93;;
1591;SDS011;789;51.612;7.510;2023-03-01T11:07:50;9.53;;;8.63;;
1591;SDS011;789;51.612;7.510;2023-03-01T11:10:20;18.33;;;8.70;;
1591;SDS011;789;51.612;7.510;2023-03-01T11:12:48;17.10;;;9.60;;
1591;SDS011;789;51.612;7.510;2023-03-01T11:15:23;8.90;;;8.00;;
1591;SDS011;789;51.612;7.510;2023-03-01T11:17:52;9.60;;;8.40;;
1591;SDS011;789;51.612;7.510;2023-03-01T11:20:24;11.23;;;8.80;;
1591;SDS011;789;51.612;7.510;2023-03-01T11:22:53;16.23;;;9.07;;
1591;SDS011;789;51.612;7.510;2023-03-01T11:25:23;10.60;;;9.10;;
1591;SDS011;789;51.612;7.510;2023-03-01T11:27:52;9.93;;;8.83;;
1591;SDS011;789;51.612;7.510;2023-03-01T11:30:20;10.10;;;9.00;;
1591;SDS011;789;51.612;7.510;2023-03-01T11:32:51;10.37;;;9.10;;
1591;SDS011;789;51.612;7.510;2023-03-01T11:35:27;10.33;;;9.03;;
1591;SDS011;789;51.612;7.510;2023-03-01T11:37:59;10.50;;;8.87;;
1591;SDS011;789;51.612;7.510;2023-03-01T11:40:34;12.83;;;9.60;;
1591;SDS011;789;51.612;7.510;2023-03-01T11:43:17;9.70;;;8.57;;
1591;SDS011;789;51.612;7.510;2023-03-01T11:49:10;12.03;;;9.70;;
1591;SDS011;789;51.612;7.510;2023-03-01T11:51:55;10.17;;;8.17;;
1591;SDS011;789;51.612;7.510;2023-03-01T11:54:30;11.43;;;8.03;;
1591;SDS011;789;51.612;7.510;2023-03-01T11:57:10;11.63;;;8.60;;
1591;SDS011;789;51.612;7.510;2023-03-01T11:59:51;11.83;;;9.57;;
1591;SDS011;789;51.612;7.510;2023-03-01T12:05:51;17.30;;;9.30;;
1591;SDS011;789;51.612;7.510;2023-03-01T12:08:49;12.57;;;8.90;;
1591;SDS011;789;51.612;7.510;2023-03-01T12:11:34;10.10;;;9.07;;
1591;SDS011;789;51.612;7.510;2023-03-01T12:14:13;11.03;;;9.07;;
1591;SDS011;789;51.612;7.510;2023-03-01T12:16:59;9.83;;;8.87;;
1591;SDS011;789;51.612;7.510;2023-03-01T12:19:41;11.87;;;10.80;;
1591;SDS011;789;51.612;7.510;2023-03-01T12:22:28;11.20;;;9.17;;
1591;SDS011;789;51.612;7.510;2023-03-01T12:28:10;12.37;;;9.40;;
1591;SDS011;789;51.612;7.510;2023-03-01T12:30:56;12.23;;;9.70;;
1591;SDS011;789;51.612;7.510;2023-03-01T12:33:38;8.80;;;7.90;;
1591;SDS011;789;51.612;7.510;2023-03-01T12:36:24;9.93;;;8.90;;
1591;SDS011;789;51.612;7.510;2023-03-01T12:39:00;9.70;;;8.70;;
1591;SDS011;789;51.612;7.510;2023-03-01T12:41:47;10.23;;;9.00;;
1591;SDS011;789;51.612;7.510;2023-03-01T12:44:29;12.07;;;9.87;;
1591;SDS011;789;51.612;7.510;2023-03-01T12:47:11;14.00;;;10.23;;
1591;SDS011;789;51.612;7.510;2023-03-01T12:49:47;12.50;;;8.70;;
1591;SDS011;789;51.612;7.510;2023-03-01T12:52:18;15.40;;;10.20;;
1591;SDS011;789;51.612;7.510;2023-03-01T12:54:49;13.73;;;9.67;;
1591;SDS011;789;51.612;7.510;2023-03-01T12:57:18;11.03;;;8.80;;
1591;SDS011;789;51.612;7.510;2023-03-01T12:59:51;11.87;;;9.60;;
1591;SDS011;789;51.612;7.510;2023-03-01T13:02:37;14.80;;;9.67;;
1591;SDS011;789;51.612;7.510;2023-03-01T13:05:18;15.73;;;9.83;;
1591;SDS011;789;51.612;7.510;2023-03-01T13:07:52;11.77;;;9.70;;
1591;SDS011;789;51.612;7.510;2023-03-01T13:10:29;10.07;;;8.63;;
1591;SDS011;789;51.612;7.510;2023-03-01T13:13:01;15.40;;;10.17;;
1591;SDS011;789;51.612;7.510;2023-03-01T13:15:37;10.60;;;8.87;;
1591;SDS011;789;51.612;7.510;2023-03-01T13:18:27;15.90;;;10.47;;
1591;SDS011;789;51.612;7.510;2023-03-01T13:20:57;11.77;;;9.20;;
1591;SDS011;789;51.612;7.510;2023-03-01T13:23:26;11.57;;;8.27;;
1591;SDS011;789;51.612;7.510;2023-03-01T13:28:53;10.87;;;7.97;;
1591;SDS011;789;51.612;7.510;2023-03-01T13:34:43;10.87;;;9.00;;
1591;SDS011;789;51.612;7.510;2023-03-01T13:37:32;11.77;;;9.33;;
1591;SDS011;789;51.612;7.510;2023-03-01T13:43:31;9.80;;;8.47;;
1591;SDS011;789;51.612;7.510;2023-03-01T13:46:00;11.80;;;9.20;;
1591;SDS011;789;51.612;7.510;2023-03-01T13:48:33;12.13;;;8.63;;
1591;SDS011;789;51.612;7.510;2023-03-01T13:51:02;11.73;;;8.30;;
1591;SDS011;789;51.612;7.510;2023-03-01T13:53:31;12.93;;;10.00;;
1591;SDS011;789;51.612;7.510;2023-03-01T13:56:02;14.70;;;9.17;;
1591;SDS011;789;51.612;7.510;2023-03-01T13:58:43;10.53;;;8.87;;
1591;SDS011;789;51.612;7.510;2023-03-01T14:01:20;13.03;;;9.50;;
1591;SDS011;789;51.612;7.510;2023-03-01T14:03:48;12.13;;;8.90;;
1591;SDS011;789;51.612;7.510;2023-03-01T14:06:18;12.03;;;9.57;;
1591;SDS011;789;51.612;7.510;2023-03-01T14:08:48;10.90;;;9.00;;
1591;SDS011;789;51.612;7.510;2023-03-01T14:14:20;10.77;;;9.23;;
1591;SDS011;789;51.612;7.510;2023-03-01T14:17:13;10.60;;;8.63;;
1591;SDS011;789;51.612;7.510;2023-03-01T14:19:54;10.70;;;9.60;;
1591;SDS011;789;51.612;7.510;2023-03-01T14:22:25;14.80;;;9.30;;
1591;SDS011;789;51.612;7.510;2023-03-01T14:24:54;13.27;;;9.50;;
1591;SDS011;789;51.612;7.510;2023-03-01T14:27:24;17.73;;;9.00;;
1591;SDS011;789;51.612;7.510;2023-03-01T14:29:54;11.33;;;9.00;;
1591;SDS011;789;51.612;7.510;2023-03-01T14:32:22;11.07;;;9.43;;
1591;SDS011;789;51.612;7.510;2023-03-01T14:34:51;10.97;;;9.50;;
1591;SDS011;789;51.612;7.510;2023-03-01T14:37:19;32.40;;;10.93;;
1591;SDS011;789;51.612;7.510;2023-03-01T14:39:49;11.57;;;9.23;;
1591;SDS011;789;51.612;7.510;2023-03-01T14:42:16;12.93;;;8.70;;
1591;SDS011;789;51.612;7.510;2023-03-01T14:44:44;9.70;;;8.20;;
1591;SDS011;789;51.612;7.510;2023-03-01T14:47:13;14.13;;;9.10;;
1591;SDS011;789;51.612;7.510;2023-03-01T14:49:43;10.90;;;8.70;;
1591;SDS011;789;51.612;7.510;2023-03-01T14:52:17;11.27;;;8.97;;
1591;SDS011;789;51.612;7.510;2023-03-01T14:54:47;11.03;;;8.10;;
1591;SDS011;789;51.612;7.510;2023-03-01T14:57:18;13.50;;;9.20;;
1591;SDS011;789;51.612;7.510;2023-03-01T14:59:48;7.90;;;6.43;;
1591;SDS011;789;51.612;7.510;2023-03-01T15:02:18;13.00;;;7.50;;
1591;SDS011;789;51.612;7.510;2023-03-01T15:04:48;8.80;;;6.30;;
1591;SDS011;789;51.612;7.510;2023-03-01T15:07:17;9.03;;;5.97;;
1591;SDS011;789;51.612;7.510;2023-03-01T15:09:45;8.90;;;6.60;;
1591;SDS011;789;51.612;7.510;2023-03-01T15:12:32;10.90;;;6.70;;
1591;SDS011;789;51.612;7.510;2023-03-01T15:17:50;10.00;;;6.10;;
1591;SDS011;789;51.612;7.510;2023-03-01T15:20:21;8.83;;;6.07;;
1591;SDS011;789;51.612;7.510;2023-03-01T15:22:50;9.03;;;6.10;;
1591;SDS011;789;51.612;7.510;2023-03-01T15:25:18;10.60;;;6.47;;
1591;SDS011;789;51.612;7.510;2023-03-01T15:27:49;9.63;;;6.60;;
1591;SDS011;789;51.612;7.510;2023-03-01T15:30:18;7.90;;;5.87;;
1591;SDS011;789;51.612;7.510;2023-03-01T15:32:47;7.90;;;5.60;;
1591;SDS011;789;51.612;7.510;2023-03-01T15:38:04;9.77;;;6.20;;
1591;SDS011;789;51.612;7.510;2023-03-01T15:40:49;6.83;;;5.20;;
1591;SDS011;789;51.612;7.510;2023-03-01T15:46:15;9.60;;;6.53;;
1591;SDS011;789;51.612;7.510;2023-03-01T15:48:50;8.80;;;6.10;;
1591;SDS011;789;51.612;7.510;2023-03-01T15:51:22;7.43;;;5.57;;
1591;SDS011;789;51.612;7.510;2023-03-01T15:53:54;8.83;;;5.20;;
1591;SDS011;789;51.612;7.510;2023-03-01T15:56:22;11.37;;;6.10;;
1591;SDS011;789;51.612;7.510;2023-03-01T15:58:51;8.60;;;5.93;;